Time;durP1;ratioP1;P1;durP2;ratioP2;P2;SDS_P1;SDS_P2;PMS_P1;PMS_P2;Temp;Humidity;BMP_temperature;BMP_pressure;BME280_temperature;BME280_humidity;BME280_pressure;Samples;Min_cycle;Max_cycle;Signal;HPM_P1;HPM_P2
2022/05/20 00:00:36;;;;;;;3.88;3.47;;;22.50;56.60;;;;;;5106044;28;20515;-35
2022/05/20 00:03:02;;;;;;;3.75;3.45;;;22.50;56.80;;;;;;5087598;28;20120;-36
2022/05/20 00:05:28;;;;;;;3.67;3.38;;;22.50;56.80;;;;;;5105737;28;20126;-35
2022/05/20 00:07:57;;;;;;;3.67;3.38;;;22.50;56.80;;;;;;5105651;28;20106;-35
2022/05/20 00:10:23;;;;;;;3.30;3.00;;;22.40;56.80;;;;;;5104734;28;20035;-35
2022/05/20 00:12:50;;;;;;;3.15;2.90;;;22.40;56.70;;;;;;5070626;28;20063;-36
2022/05/20 00:15:18;;;;;;;3.78;3.47;;;22.40;56.40;;;;;;5105496;28;20031;-35
2022/05/20 00:17:44;;;;;;;3.35;3.05;;;22.40;56.40;;;;;;5087317;28;20075;-35
2022/05/20 00:20:11;;;;;;;3.38;3.08;;;22.40;56.20;;;;;;5104736;28;20031;-35
2022/05/20 00:22:38;;;;;;;;;;;22.30;56.40;;;;;;5105893;28;20050;-35
2022/05/20 00:27:50;;;;;;;3.28;2.97;;;22.30;56.30;;;;;;5084864;28;20585;-36
2022/05/20 00:30:16;;;;;;;3.20;2.90;;;22.30;56.30;;;;;;5101719;28;20060;-35
2022/05/20 00:32:42;;;;;;;3.58;3.15;;;22.30;56.30;;;;;;5104073;28;20044;-35
2022/05/20 00:35:09;;;;;;;3.05;2.83;;;22.20;56.40;;;;;;5105024;28;20035;-36
2022/05/20 00:37:35;;;;;;;3.28;2.92;;;22.20;56.40;;;;;;5105291;28;20382;-35
2022/05/20 00:40:02;;;;;;;3.05;2.85;;;22.20;56.20;;;;;;5104458;28;20107;-36
2022/05/20 00:42:28;;;;;;;3.50;3.20;;;22.20;56.10;;;;;;5105151;28;20032;-36
2022/05/20 00:44:54;;;;;;;3.30;3.00;;;22.20;56.50;;;;;;5104833;28;20120;-35
2022/05/20 00:47:20;;;;;;;3.25;3.00;;;22.10;56.30;;;;;;5104666;28;20036;-35
2022/05/20 00:49:50;;;;;;;3.00;2.70;;;22.10;56.10;;;;;;5104720;28;20032;-35
2022/05/20 00:52:19;;;;;;;3.20;2.78;;;22.10;56.20;;;;;;5104332;28;20035;-35
2022/05/20 00:54:47;;;;;;;3.42;3.13;;;22.10;55.90;;;;;;5104553;28;20028;-35
2022/05/20 00:57:15;;;;;;;3.17;2.97;;;22.00;56.10;;;;;;5086694;28;20097;-35
2022/05/20 00:59:42;;;;;;;3.15;2.95;;;22.00;56.20;;;;;;5086974;28;20088;-35
2022/05/20 01:02:10;;;;;;;3.55;3.25;;;22.00;55.90;;;;;;5104156;28;20026;-35
2022/05/20 01:04:36;;;;;;;3.58;2.70;;;22.00;55.90;;;;;;5086460;28;20039;-35
2022/05/20 01:07:03;;;;;;;3.53;3.22;;;22.00;56.00;;;;;;5086128;28;20051;-35
2022/05/20 01:09:29;;;;;;;3.20;3.00;;;21.90;55.90;;;;;;5069638;28;20513;-35
2022/05/20 01:11:56;;;;;;;2.95;2.70;;;21.90;56.10;;;;;;5112756;28;20052;-35
2022/05/20 01:14:24;;;;;;;3.00;2.80;;;21.90;56.10;;;;;;5124971;28;20024;-36
2022/05/20 01:16:50;;;;;;;3.00;2.80;;;21.90;56.00;;;;;;5077586;28;20124;-36
2022/05/20 01:19:28;;;;;;;2.42;2.22;;;21.80;55.90;;;;;;5100738;28;20020;-35
2022/05/20 01:21:54;;;;;;;;;;;21.80;56.00;;;;;;5104118;28;20032;-36
2022/05/20 01:24:20;;;;;;;3.10;2.90;;;21.80;56.10;;;;;;5104295;28;19942;-35
2022/05/20 01:26:47;;;;;;;3.40;3.10;;;21.80;56.00;;;;;;5104081;28;20034;-35
2022/05/20 01:29:13;;;;;;;3.13;2.92;;;21.70;55.90;;;;;;5103434;28;20036;-35
2022/05/20 01:31:39;;;;;;;2.88;2.67;;;21.70;55.90;;;;;;5105580;28;20069;-35
2022/05/20 01:34:06;;;;;;;2.97;2.78;;;21.70;56.00;;;;;;5104269;28;20084;-36
2022/05/20 01:36:32;;;;;;;3.00;2.70;;;21.70;55.90;;;;;;5103781;28;20051;-35
2022/05/20 01:38:59;;;;;;;2.67;2.45;;;21.60;55.80;;;;;;5104059;28;20035;-35
2022/05/20 01:41:34;;;;;;;2.85;2.60;;;21.60;55.80;;;;;;5103470;28;20024;-35
2022/05/20 01:44:04;;;;;;;3.10;2.80;;;21.60;56.10;;;;;;5085501;28;20119;-35
2022/05/20 01:46:35;;;;;;;3.15;2.85;;;21.60;55.90;;;;;;5103807;28;20032;-36
2022/05/20 01:49:07;;;;;;;3.03;2.70;;;21.60;56.00;;;;;;5103730;28;20028;-36
2022/05/20 01:51:47;;;;;;;3.25;3.00;;;21.50;55.90;;;;;;5084898;28;20041;-36
2022/05/20 01:54:36;;;;;;;3.00;2.78;;;21.50;56.10;;;;;;5050508;28;20025;-35
2022/05/20 01:57:22;;;;;;;2.85;2.65;;;21.50;56.20;;;;;;5054170;28;20032;-35
2022/05/20 01:59:51;;;;;;;2.92;2.72;;;21.40;56.10;;;;;;5081458;28;20039;-35
2022/05/20 02:02:29;;;;;;;2.83;2.63;;;21.40;56.00;;;;;;5085078;28;20111;-36
2022/05/20 02:05:02;;;;;;;3.08;2.72;;;21.40;56.00;;;;;;5070051;28;20028;-36
2022/05/20 02:07:31;;;;;;;3.10;2.90;;;21.30;56.00;;;;;;5069358;28;20044;-36
2022/05/20 02:10:16;;;;;;;3.00;2.80;;;21.30;55.80;;;;;;5103258;28;20028;-36
2022/05/20 02:12:46;;;;;;;2.63;2.42;;;21.30;55.70;;;;;;5102652;28;20046;-35
2022/05/20 02:15:19;;;;;;;2.90;2.70;;;21.20;55.90;;;;;;5068778;28;20028;-35
2022/05/20 02:17:48;;;;;;;3.00;2.80;;;21.20;55.80;;;;;;5103089;28;20449;-35
2022/05/20 02:20:37;;;;;;;3.05;2.85;;;21.20;55.70;;;;;;5084310;28;20023;-36
2022/05/20 02:23:04;;;;;;;2.85;2.63;;;21.10;55.70;;;;;;5068252;28;20052;-36
2022/05/20 02:25:33;;;;;;;2.65;2.45;;;21.10;55.80;;;;;;5082972;28;20024;-36
2022/05/20 02:28:12;;;;;;;3.33;3.03;;;21.10;55.80;;;;;;5064836;28;20013;-35
2022/05/20 02:30:39;;;;;;;2.40;2.20;;;21.10;55.70;;;;;;5065654;28;20129;-35
2022/05/20 02:33:18;;;;;;;3.25;2.95;;;21.00;55.60;;;;;;5067803;28;20043;-35
2022/05/20 02:35:44;;;;;;;2.83;2.63;;;21.00;55.70;;;;;;5103203;28;20028;-35
2022/05/20 02:38:13;;;;;;;3.23;2.93;;;21.00;55.70;;;;;;5103003;28;20028;-36
2022/05/20 02:40:41;;;;;;;2.75;2.55;;;20.90;55.60;;;;;;5095377;28;20268;-36
2022/05/20 02:43:08;;;;;;;3.20;2.90;;;21.00;55.90;;;;;;5081908;28;20043;-35
2022/05/20 02:45:34;;;;;;;3.20;3.00;;;20.90;56.70;;;;;;5082357;28;20024;-35
2022/05/20 02:48:01;;;;;;;3.05;2.75;;;20.90;57.20;;;;;;5082574;28;20041;-35
2022/05/20 02:50:27;;;;;;;3.00;2.80;;;20.80;57.40;;;;;;5082618;28;20017;-35
2022/05/20 02:52:54;;;;;;;3.17;2.80;;;20.80;57.40;;;;;;5063979;28;20497;-36
2022/05/20 02:55:20;;;;;;;2.70;2.50;;;20.80;57.40;;;;;;5081938;28;20036;-35
2022/05/20 02:57:47;;;;;;;3.00;2.80;;;20.80;57.40;;;;;;5093718;28;20039;-36
2022/05/20 03:05:57;;;;;;;2.50;2.30;;;20.80;57.40;;;;;;5039520;28;20088;-35
2022/05/20 03:08:23;;;;;;;2.90;2.65;;;20.70;57.40;;;;;;5022958;28;20029;-36
2022/05/20 03:10:50;;;;;;;3.00;2.80;;;20.80;57.40;;;;;;5039492;28;20125;-35
2022/05/20 03:13:16;;;;;;;2.20;2.00;;;20.80;57.30;;;;;;5038962;28;20033;-36
2022/05/20 03:15:43;;;;;;;4.10;3.17;;;20.80;57.30;;;;;;5039452;28;20112;-36
2022/05/20 03:18:10;;;;;;;2.78;2.58;;;20.80;57.30;;;;;;5042220;28;20048;-35
2022/05/20 03:20:38;;;;;;;;;;;20.80;57.20;;;;;;5039810;28;20063;-36
2022/05/20 03:23:06;;;;;;;2.78;2.58;;;20.80;57.20;;;;;;5022027;28;20311;-36
2022/05/20 03:25:32;;;;;;;2.90;2.70;;;20.80;57.10;;;;;;5019326;28;20038;-35
2022/05/20 03:27:59;;;;;;;2.80;2.60;;;20.80;57.10;;;;;;5032216;28;20093;-36
2022/05/20 03:30:26;;;;;;;2.88;2.67;;;20.80;57.00;;;;;;5040714;28;20087;-35
2022/05/20 03:32:52;;;;;;;2.88;2.67;;;20.80;57.00;;;;;;5038798;28;20076;-36
2022/05/20 03:35:18;;;;;;;2.55;2.35;;;20.80;56.90;;;;;;5039322;28;20236;-36
2022/05/20 03:37:44;;;;;;;2.87;2.67;;;20.80;56.90;;;;;;5039467;28;20057;-35
2022/05/20 03:40:11;;;;;;;2.90;2.45;;;20.90;56.90;;;;;;5042232;28;20021;-36
2022/05/20 03:42:37;;;;;;;2.50;2.30;;;20.90;56.80;;;;;;5118486;28;20046;-36
2022/05/20 03:45:04;;;;;;;2.80;2.60;;;20.90;56.70;;;;;;5122502;28;20024;-36
2022/05/20 03:47:30;;;;;;;2.38;2.17;;;20.90;56.70;;;;;;5122779;28;20023;-35
2022/05/20 03:49:56;;;;;;;2.65;2.45;;;20.90;56.60;;;;;;5122577;28;20034;-36
2022/05/20 03:52:22;;;;;;;2.78;2.58;;;20.90;56.60;;;;;;5122351;28;20036;-35
2022/05/20 03:54:48;;;;;;;2.58;2.38;;;20.90;56.50;;;;;;5122151;28;20028;-36
2022/05/20 03:57:14;;;;;;;2.85;2.30;;;20.90;56.40;;;;;;5115561;28;20115;-36
2022/05/20 03:59:40;;;;;;;2.70;2.50;;;20.90;56.40;;;;;;5102681;28;20055;-36
2022/05/20 04:02:11;;;;;;;2.67;2.47;;;21.00;56.30;;;;;;5101997;28;20035;-36
2022/05/20 04:04:42;;;;;;;2.50;2.30;;;21.00;56.30;;;;;;5101763;28;20563;-36
2022/05/20 04:07:10;;;;;;;2.70;2.50;;;21.00;56.30;;;;;;5103452;28;20400;-36
2022/05/20 04:09:36;;;;;;;2.75;2.55;;;21.00;56.20;;;;;;5102151;28;20020;-36
2022/05/20 04:12:04;;;;;;;2.63;2.42;;;21.00;56.20;;;;;;5103652;28;20057;-37
2022/05/20 04:14:31;;;;;;;2.70;2.50;;;21.00;56.20;;;;;;5086411;28;20028;-36
2022/05/20 04:16:57;;;;;;;2.47;2.27;;;21.00;56.30;;;;;;5102493;28;20097;-36
2022/05/20 04:19:28;;;;;;;2.70;2.50;;;21.00;56.20;;;;;;5085915;28;20036;-36
2022/05/20 04:21:57;;;;;;;2.28;2.08;;;21.10;56.20;;;;;;5104265;28;20032;-36
2022/05/20 04:24:23;;;;;;;2.50;2.30;;;21.10;56.10;;;;;;5102917;28;20032;-36
2022/05/20 04:26:49;;;;;;;2.25;2.05;;;21.10;56.00;;;;;;5099328;28;20024;-38
2022/05/20 04:29:15;;;;;;;2.75;2.55;;;21.10;56.00;;;;;;5104466;28;20044;-40
2022/05/20 04:31:46;;;;;;;3.08;2.88;;;21.10;56.10;;;;;;5097983;28;20036;-37
2022/05/20 04:34:32;;;;;;;2.75;2.53;;;21.10;56.10;;;;;;5066210;28;20044;-36
2022/05/20 04:36:58;;;;;;;2.95;2.75;;;21.20;56.10;;;;;;5018442;28;20093;-36
2022/05/20 04:39:24;;;;;;;2.63;2.42;;;21.20;56.30;;;;;;5019911;28;20088;-36
2022/05/20 04:47:26;;;;;;;6.38;2.75;;;21.20;56.50;;;;;;5014674;28;20150;-37
2022/05/20 04:49:52;;;;;;;6.85;3.38;;;21.30;56.70;;;;;;5013255;28;20137;-36
2022/05/20 04:52:18;;;;;;;6.88;3.67;;;21.30;56.90;;;;;;5021354;28;20045;-37
2022/05/20 04:54:50;;;;;;;10.77;3.22;;;21.30;56.80;;;;;;5020698;28;20045;-37
2022/05/20 04:57:45;;;;;;;8.35;3.45;;;21.30;56.80;;;;;;5021379;28;20121;-37
2022/05/20 05:00:22;;;;;;;5.93;3.50;;;21.30;56.70;;;;;;5016248;28;20488;-37
2022/05/20 05:02:49;;;;;;;9.85;3.88;;;21.40;56.70;;;;;;5021684;28;20030;-36
2022/05/20 05:05:20;;;;;;;9.68;4.03;;;21.40;56.70;;;;;;5021435;28;20121;-36
2022/05/20 05:07:47;;;;;;;12.63;4.53;;;21.40;57.30;;;;;;5017793;28;20121;-36
2022/05/20 05:10:14;;;;;;;;;;;21.40;57.70;;;;;;5018965;28;20073;-36
2022/05/20 05:12:40;;;;;;;13.60;4.05;;;21.40;57.90;;;;;;5019539;28;19975;-36
2022/05/20 05:15:07;;;;;;;8.38;3.85;;;21.40;58.00;;;;;;5084106;28;20122;-36
2022/05/20 05:20:20;;;;;;;9.98;3.80;;;21.50;58.00;;;;;;5091980;28;20058;-36
2022/05/20 05:22:48;;;;;;;8.80;3.83;;;21.50;58.00;;;;;;5089143;28;20033;-36
2022/05/20 05:25:14;;;;;;;7.03;4.03;;;21.50;57.90;;;;;;5097152;28;20566;-36
2022/05/20 05:27:40;;;;;;;6.63;3.45;;;21.60;57.90;;;;;;5089988;28;20040;-37
2022/05/20 05:30:07;;;;;;;5.20;3.70;;;21.60;57.80;;;;;;5096410;28;20044;-36
2022/05/20 05:32:35;;;;;;;8.18;3.65;;;21.60;57.70;;;;;;5095224;28;20048;-36
2022/05/20 05:35:02;;;;;;;8.15;3.70;;;21.60;57.70;;;;;;5075848;28;20034;-37
2022/05/20 05:37:28;;;;;;;8.05;4.03;;;21.60;57.60;;;;;;5094201;28;20047;-36
2022/05/20 05:39:54;;;;;;;6.43;3.72;;;21.60;57.50;;;;;;5076332;28;20033;-37
2022/05/20 05:42:21;;;;;;;10.32;3.70;;;21.70;57.50;;;;;;5087069;28;20028;-36
2022/05/20 05:44:47;;;;;;;6.83;3.73;;;21.70;57.40;;;;;;5057536;28;20029;-36
2022/05/20 05:47:13;;;;;;;4.53;3.40;;;21.70;57.30;;;;;;5091706;28;20024;-36
2022/05/20 05:49:39;;;;;;;7.22;3.90;;;21.70;57.30;;;;;;5091950;28;20034;-36
2022/05/20 05:52:06;;;;;;;4.85;3.72;;;21.70;57.10;;;;;;5090845;28;20096;-36
2022/05/20 05:54:32;;;;;;;4.10;3.70;;;21.70;57.00;;;;;;5092532;28;20033;-36
2022/05/20 05:56:59;;;;;;;7.20;4.03;;;21.70;56.90;;;;;;5092615;28;20035;-36
2022/05/20 05:59:25;;;;;;;6.32;3.58;;;21.80;57.00;;;;;;5093297;28;20035;-36
2022/05/20 06:01:57;;;;;;;5.43;3.63;;;21.80;57.00;;;;;;5096932;28;20034;-37
2022/05/20 06:04:24;;;;;;;5.57;3.45;;;21.80;56.90;;;;;;5076239;28;20131;-36
2022/05/20 06:06:50;;;;;;;5.30;3.42;;;21.80;56.80;;;;;;5095034;28;20039;-36
2022/05/20 06:09:17;;;;;;;4.13;3.72;;;21.80;56.80;;;;;;5089881;28;20028;-37
2022/05/20 06:11:43;;;;;;;6.40;3.63;;;21.80;56.70;;;;;;5095082;28;20044;-38
2022/05/20 06:14:10;;;;;;;5.32;2.53;;;21.80;56.70;;;;;;5070375;28;20066;-36
2022/05/20 06:16:37;;;;;;;6.18;3.38;;;21.90;56.70;;;;;;5089412;28;20040;-36
2022/05/20 06:19:03;;;;;;;5.18;3.55;;;21.90;56.70;;;;;;5072367;28;20056;-36
2022/05/20 06:21:30;;;;;;;4.07;3.40;;;21.90;56.70;;;;;;5092468;28;20020;-36
2022/05/20 06:23:56;;;;;;;4.07;3.50;;;21.90;56.60;;;;;;5091821;28;20111;-36
2022/05/20 06:26:22;;;;;;;6.00;3.40;;;21.90;56.60;;;;;;5088455;28;20509;-36
2022/05/20 06:28:48;;;;;;;5.78;3.67;;;21.90;56.60;;;;;;5091534;28;20024;-37
2022/05/20 06:31:14;;;;;;;4.40;3.67;;;21.90;56.50;;;;;;5091800;28;20036;-37
2022/05/20 06:33:41;;;;;;;5.85;3.95;;;21.90;56.50;;;;;;5092103;28;20028;-37
2022/05/20 06:41:44;;;;;;;5.47;3.47;;;22.00;56.50;;;;;;5091792;28;20035;-36
2022/05/20 06:44:10;;;;;;;4.13;3.72;;;22.00;56.50;;;;;;5090570;28;20055;-36
2022/05/20 06:46:36;;;;;;;4.78;3.72;;;22.00;56.50;;;;;;5093823;28;20028;-36
2022/05/20 06:49:03;;;;;;;5.28;3.60;;;22.00;56.50;;;;;;5093156;28;20549;-35
2022/05/20 06:51:30;;;;;;;4.68;3.60;;;22.00;56.50;;;;;;5095810;28;20039;-36
2022/05/20 06:53:57;;;;;;;;;;;22.00;56.50;;;;;;5075204;28;20139;-36
2022/05/20 06:56:24;;;;;;;5.93;3.80;;;22.00;56.60;;;;;;5093454;28;19918;-36
2022/05/20 06:58:50;;;;;;;5.85;3.60;;;22.00;56.40;;;;;;5089937;28;20024;-36
2022/05/20 07:01:16;;;;;;;6.00;3.70;;;22.00;56.40;;;;;;5087883;28;20033;-36
2022/05/20 07:03:43;;;;;;;5.75;3.63;;;22.00;56.40;;;;;;5094724;28;20054;-36
2022/05/20 07:06:09;;;;;;;6.15;4.00;;;22.00;56.40;;;;;;5095808;28;20039;-36
2022/05/20 07:08:36;;;;;;;4.25;3.85;;;22.00;56.40;;;;;;5089847;28;20089;-35
2022/05/20 07:11:02;;;;;;;4.65;3.53;;;22.00;56.30;;;;;;5091750;28;20061;-36
2022/05/20 07:13:31;;;;;;;3.95;3.50;;;22.00;56.30;;;;;;5090885;28;20032;-36
2022/05/20 07:15:58;;;;;;;6.00;3.70;;;22.00;56.20;;;;;;5093298;28;20024;-36
2022/05/20 07:18:25;;;;;;;4.32;3.45;;;22.00;56.20;;;;;;5090572;28;20050;-36
2022/05/20 07:20:51;;;;;;;6.05;3.63;;;22.00;56.80;;;;;;5091454;28;20091;-36
2022/05/20 07:23:18;;;;;;;4.28;3.50;;;22.00;56.20;;;;;;5091723;28;20119;-36
2022/05/20 07:25:44;;;;;;;3.95;3.55;;;22.10;56.20;;;;;;5093273;28;20083;-36
2022/05/20 07:28:10;;;;;;;4.72;3.60;;;22.00;56.10;;;;;;5095448;28;20032;-36
2022/05/20 07:30:36;;;;;;;4.65;3.70;;;22.10;56.20;;;;;;5090164;28;20056;-36
2022/05/20 07:33:03;;;;;;;8.00;3.70;;;22.10;56.10;;;;;;5091717;28;20032;-36
2022/05/20 07:35:29;;;;;;;5.75;3.65;;;22.10;56.10;;;;;;5094957;28;20028;-37
2022/05/20 07:37:55;;;;;;;3.75;3.45;;;22.10;56.10;;;;;;5090381;28;20040;-37
2022/05/20 07:40:22;;;;;;;4.25;3.85;;;22.00;56.00;;;;;;5095218;28;20032;-36
2022/05/20 07:42:48;;;;;;;4.13;3.60;;;22.10;56.00;;;;;;5084906;28;20051;-36
2022/05/20 07:45:15;;;;;;;4.70;3.85;;;22.10;56.00;;;;;;5104559;28;20036;-36
2022/05/20 07:47:41;;;;;;;;;;;22.10;56.00;;;;;;5092523;28;20213;-36
2022/05/20 07:50:08;;;;;;;5.40;3.70;;;22.10;56.10;;;;;;5098070;28;20392;-37
2022/05/20 07:55:25;;;;;;;5.43;3.70;;;22.10;56.00;;;;;;5079018;28;20299;-36
2022/05/20 07:57:51;;;;;;;4.00;3.60;;;22.10;56.00;;;;;;5085144;28;20036;-37
2022/05/20 08:00:18;;;;;;;4.17;3.73;;;22.10;56.00;;;;;;5099010;28;20075;-36
2022/05/20 08:02:44;;;;;;;4.65;3.40;;;22.10;55.90;;;;;;5061649;28;20055;-36
2022/05/20 08:05:10;;;;;;;4.47;3.45;;;22.10;56.00;;;;;;5079666;28;20676;-36
2022/05/20 08:07:42;;;;;;;4.55;3.90;;;22.10;56.00;;;;;;5097381;28;20126;-36
2022/05/20 08:10:11;;;;;;;4.30;3.92;;;22.10;55.90;;;;;;5085035;28;20019;-37
2022/05/20 08:12:37;;;;;;;4.63;3.53;;;22.10;55.90;;;;;;5093980;28;20040;-37
2022/05/20 08:15:04;;;;;;;4.57;3.20;;;22.10;55.90;;;;;;5091117;28;20055;-37
2022/05/20 08:17:33;;;;;;;3.92;3.53;;;22.10;55.90;;;;;;5092667;28;20128;-36
2022/05/20 08:19:59;;;;;;;4.38;3.70;;;22.10;55.90;;;;;;5099238;28;20036;-37
2022/05/20 08:22:25;;;;;;;4.07;3.35;;;22.10;55.90;;;;;;5096399;28;20061;-37
2022/05/20 08:24:52;;;;;;;3.97;3.58;;;22.10;55.90;;;;;;5098808;28;20039;-37
2022/05/20 08:27:22;;;;;;;4.82;4.00;;;22.10;55.90;;;;;;5097479;28;20036;-36
2022/05/20 08:29:49;;;;;;;4.20;3.50;;;22.10;55.90;;;;;;5097657;28;20048;-36
2022/05/20 08:32:15;;;;;;;4.15;3.58;;;22.10;55.90;;;;;;5083945;28;20039;-36
2022/05/20 08:34:44;;;;;;;4.10;3.70;;;22.10;56.00;;;;;;5100512;28;20109;-36
2022/05/20 08:37:11;;;;;;;4.25;3.83;;;22.10;56.00;;;;;;5071676;28;20040;-40
2022/05/20 08:39:37;;;;;;;4.43;3.60;;;22.10;56.00;;;;;;5096664;28;20025;-37
2022/05/20 08:42:05;;;;;;;4.30;3.90;;;22.10;56.00;;;;;;5103312;28;20039;-37
2022/05/20 08:44:31;;;;;;;4.10;3.60;;;22.10;56.00;;;;;;5102889;28;20024;-37
2022/05/20 08:47:27;;;;;;;3.92;3.53;;;22.10;55.90;;;;;;5098241;28;20036;-37
2022/05/20 08:49:57;;;;;;;4.05;3.40;;;22.10;56.00;;;;;;5081503;28;20048;-37
2022/05/20 08:52:23;;;;;;;4.18;3.60;;;22.10;55.90;;;;;;5074243;28;20040;-36
2022/05/20 08:54:49;;;;;;;5.33;3.87;;;22.10;55.90;;;;;;5097712;28;20374;-36
2022/05/20 08:57:24;;;;;;;3.60;3.30;;;22.00;55.80;;;;;;5097955;28;20025;-36
2022/05/20 08:59:51;;;;;;;3.75;3.38;;;22.00;55.90;;;;;;5082023;28;20062;-36
2022/05/20 09:02:17;;;;;;;4.43;3.72;;;22.00;55.90;;;;;;5090669;28;20036;-36
2022/05/20 09:04:43;;;;;;;3.63;3.33;;;22.00;56.00;;;;;;5090136;28;20425;-36
2022/05/20 09:07:11;;;;;;;4.57;3.30;;;22.00;56.00;;;;;;5097516;28;20026;-36
2022/05/20 09:09:41;;;;;;;4.55;3.33;;;22.00;56.00;;;;;;5079974;28;20036;-36
2022/05/20 09:12:08;;;;;;;3.97;3.58;;;22.00;56.00;;;;;;5097230;28;20038;-36
2022/05/20 09:17:21;;;;;;;3.80;3.50;;;22.00;56.00;;;;;;5091849;28;20055;-36
2022/05/20 09:20:05;;;;;;;4.50;3.50;;;22.00;55.90;;;;;;5103230;28;20024;-36
2022/05/20 09:22:36;;;;;;;4.10;3.70;;;22.00;55.90;;;;;;5099823;28;20093;-36
2022/05/20 09:25:27;;;;;;;3.90;3.53;;;22.00;55.90;;;;;;5093089;28;20075;-37
2022/05/20 09:28:23;;;;;;;4.50;3.70;;;22.00;55.90;;;;;;5102430;28;20039;-36
2022/05/20 09:30:51;;;;;;;3.78;3.47;;;22.00;55.90;;;;;;5057696;28;20059;-37
2022/05/20 09:33:24;;;;;;;3.90;3.50;;;22.00;55.80;;;;;;5093236;28;20035;-37
2022/05/20 09:35:57;;;;;;;3.92;3.60;;;22.00;55.90;;;;;;5079763;28;20062;-36
2022/05/20 09:38:33;;;;;;;4.50;3.50;;;22.00;55.80;;;;;;5070153;28;20039;-36
2022/05/20 09:41:00;;;;;;;3.83;3.53;;;22.00;55.90;;;;;;5093392;28;20472;-36
2022/05/20 09:43:28;;;;;;;3.42;3.13;;;22.00;55.90;;;;;;5078518;28;20718;-37
2022/05/20 09:45:59;;;;;;;3.50;3.20;;;22.00;55.90;;;;;;5067080;28;20059;-36
2022/05/20 09:48:51;;;;;;;4.80;3.50;;;22.00;55.90;;;;;;5090851;28;20031;-36
2022/05/20 09:51:21;;;;;;;3.90;3.50;;;22.00;55.90;;;;;;5074280;28;20039;-36
2022/05/20 09:54:09;;;;;;;3.83;3.42;;;22.00;55.90;;;;;;5077077;28;20032;-36
2022/05/20 09:56:35;;;;;;;4.00;3.70;;;22.00;56.00;;;;;;5098077;28;20036;-36
2022/05/20 09:59:45;;;;;;;4.03;3.67;;;22.00;56.00;;;;;;5063378;28;20028;-36
2022/05/20 10:02:25;;;;;;;3.80;3.50;;;21.90;55.90;;;;;;5021449;28;20561;-36
2022/05/20 10:04:57;;;;;;;3.60;3.30;;;21.90;55.90;;;;;;5023348;28;20033;-37
2022/05/20 10:07:45;;;;;;;4.25;3.83;;;21.90;55.90;;;;;;5022714;28;20784;-36
2022/05/20 10:10:15;;;;;;;3.50;3.20;;;21.90;55.90;;;;;;5031067;28;20037;-37
2022/05/20 10:12:43;;;;;;;3.67;3.38;;;21.90;55.90;;;;;;5036690;28;20057;-36
2022/05/20 10:15:28;;;;;;;5.28;3.50;;;21.90;55.90;;;;;;5021010;28;20033;-36
2022/05/20 10:18:24;;;;;;;3.75;3.45;;;21.90;55.90;;;;;;5021111;28;20064;-36
2022/05/20 10:21:30;;;;;;;3.75;3.45;;;21.90;56.00;;;;;;5036361;28;20052;-36
2022/05/20 10:24:29;;;;;;;5.40;3.45;;;21.90;56.00;;;;;;5023668;28;20048;-36
2022/05/20 10:27:04;;;;;;;58.67;16.33;;;21.90;56.10;;;;;;5008792;28;20128;-36
2022/05/20 10:32:59;;;;;;;46.80;12.13;;;21.90;56.50;;;;;;5031603;28;20057;-36
2022/05/20 10:35:49;;;;;;;46.20;12.52;;;21.90;56.70;;;;;;5035513;28;20052;-39
2022/05/20 10:38:29;;;;;;;41.53;12.70;;;21.90;56.70;;;;;;5059160;28;20046;-38
2022/05/20 10:41:13;;;;;;;39.08;12.60;;;21.90;56.70;;;;;;5101089;28;20028;-37
2022/05/20 10:49:51;;;;;;;31.92;11.50;;;21.90;56.50;;;;;;5096082;28;20069;-37
2022/05/20 10:52:40;;;;;;;33.55;11.60;;;21.90;56.50;;;;;;5081737;28;20047;-37
2022/05/20 10:55:27;;;;;;;33.95;12.23;;;21.90;56.40;;;;;;5102689;28;20016;-36
2022/05/20 10:58:30;;;;;;;38.08;12.65;;;21.90;56.40;;;;;;5102644;28;20039;-36
2022/05/20 11:00:56;;;;;;;32.45;12.85;;;21.90;56.40;;;;;;5099281;28;20144;-36
2022/05/20 11:03:41;;;;;;;29.02;10.90;;;21.80;56.30;;;;;;5084408;28;20016;-36
2022/05/20 11:06:29;;;;;;;33.38;11.52;;;21.80;56.30;;;;;;5102596;28;20373;-37
2022/05/20 11:09:03;;;;;;;31.15;11.23;;;21.80;56.20;;;;;;5102765;28;20085;-36
2022/05/20 11:11:34;;;;;;;30.45;11.13;;;21.80;56.20;;;;;;5087254;28;20021;-37
2022/05/20 11:14:05;;;;;;;26.70;10.50;;;21.80;56.10;;;;;;5082353;28;20037;-37
2022/05/20 11:16:38;;;;;;;34.30;11.20;;;21.80;56.10;;;;;;5066257;28;20030;-37
2022/05/20 11:19:11;;;;;;;27.42;10.60;;;21.80;56.00;;;;;;5083301;28;20431;-37
2022/05/20 11:22:11;;;;;;;28.17;10.75;;;21.80;56.00;;;;;;5087736;28;20031;-36
2022/05/20 11:24:53;;;;;;;27.38;10.88;;;21.80;56.00;;;;;;5090761;28;20028;-36
2022/05/20 11:27:45;;;;;;;29.65;10.50;;;21.80;56.00;;;;;;5106065;28;20071;-37
2022/05/20 11:30:25;;;;;;;28.15;11.80;;;21.80;55.90;;;;;;5104437;28;20140;-36
2022/05/20 11:33:09;;;;;;;26.65;10.60;;;21.80;55.80;;;;;;5088568;28;20044;-37
2022/05/20 11:35:59;;;;;;;26.50;10.25;;;21.80;55.80;;;;;;5106262;28;20020;-37
2022/05/20 11:38:48;;;;;;;24.65;10.45;;;21.80;55.90;;;;;;5106201;28;20028;-36
2022/05/20 11:41:22;;;;;;;23.67;10.10;;;21.70;55.80;;;;;;5087690;28;20024;-36
2022/05/20 11:44:35;;;;;;;28.40;10.82;;;21.70;55.80;;;;;;5106229;28;20031;-36
2022/05/20 11:47:13;;;;;;;22.00;9.45;;;21.70;55.80;;;;;;5068435;28;20028;-37
2022/05/20 11:50:08;;;;;;;23.00;9.45;;;21.70;55.70;;;;;;5085539;28;20025;-36
2022/05/20 11:53:19;;;;;;;24.85;9.95;;;21.70;55.80;;;;;;5068933;28;20028;-37
2022/05/20 11:55:58;;;;;;;28.20;9.88;;;21.70;55.70;;;;;;5042969;28;20692;-37
2022/05/20 11:58:28;;;;;;;22.55;9.73;;;21.70;55.70;;;;;;5044068;28;20053;-37
2022/05/20 12:00:54;;;;;;;19.88;9.68;;;21.70;55.70;;;;;;5042151;28;20044;-36
2022/05/20 12:03:24;;;;;;;21.25;9.55;;;21.70;55.70;;;;;;5044957;28;20037;-37
2022/05/20 12:05:50;;;;;;;24.25;9.45;;;21.70;55.70;;;;;;5022431;28;20037;-36
2022/05/20 12:08:37;;;;;;;21.80;9.02;;;21.70;55.70;;;;;;5039325;28;20040;-37
2022/05/20 12:11:37;;;;;;;23.67;9.50;;;21.70;55.70;;;;;;5033305;28;20048;-36
2022/05/20 12:14:16;;;;;;;19.45;8.68;;;21.70;55.70;;;;;;5052539;28;20040;-37
2022/05/20 12:16:59;;;;;;;24.30;9.20;;;21.70;55.70;;;;;;5062589;28;20047;-36
2022/05/20 12:25:30;;;;;;;18.42;8.68;;;21.70;55.70;;;;;;5042623;28;20037;-37
2022/05/20 12:28:22;;;;;;;21.17;8.65;;;21.60;55.60;;;;;;5024814;28;20085;-36
2022/05/20 12:31:13;;;;;;;16.80;8.40;;;21.60;55.70;;;;;;5076061;28;20049;-36
2022/05/20 12:33:54;;;;;;;15.27;8.00;;;21.60;55.70;;;;;;5085346;28;20048;-36
2022/05/20 12:36:30;;;;;;;20.60;8.93;;;21.60;55.70;;;;;;5105365;28;20028;-36
2022/05/20 12:39:08;;;;;;;23.10;8.57;;;21.60;55.70;;;;;;5105364;28;20024;-36
2022/05/20 12:41:44;;;;;;;18.67;8.13;;;21.60;55.80;;;;;;5089445;28;20207;-37
2022/05/20 12:44:16;;;;;;;17.73;7.90;;;21.60;55.80;;;;;;5087866;28;20025;-36
2022/05/20 12:47:13;;;;;;;13.98;7.68;;;21.60;55.80;;;;;;5084736;28;20024;-36
2022/05/20 12:49:44;;;;;;;17.60;8.30;;;21.60;55.80;;;;;;5104278;28;20063;-36
2022/05/20 12:52:26;;;;;;;15.15;7.82;;;21.60;55.80;;;;;;5104325;28;20040;-36
2022/05/20 12:54:55;;;;;;;17.23;8.02;;;21.60;55.90;;;;;;5105059;28;20026;-37
2022/05/20 12:57:48;;;;;;;16.48;8.20;;;21.60;55.90;;;;;;5104832;28;20085;-36
2022/05/20 13:00:16;;;;;;;18.42;8.43;;;21.60;56.00;;;;;;5095173;28;20036;-36
2022/05/20 13:02:42;;;;;;;;;;;21.60;56.00;;;;;;5104595;28;20028;-36
2022/05/20 13:05:45;;;;;;;15.85;7.22;;;21.60;56.00;;;;;;5092732;28;20432;-36
2022/05/20 13:08:14;;;;;;;16.10;7.97;;;21.60;56.00;;;;;;5069756;28;20043;-36
2022/05/20 13:10:40;;;;;;;14.88;7.63;;;21.60;56.00;;;;;;5057423;28;20557;-36
2022/05/20 13:13:13;;;;;;;12.32;6.72;;;21.60;56.00;;;;;;5106365;28;20044;-36
2022/05/20 13:15:40;;;;;;;16.92;7.22;;;21.60;56.10;;;;;;5106392;28;20024;-36
2022/05/20 13:18:11;;;;;;;15.57;7.45;;;21.60;56.10;;;;;;5106766;28;20027;-36
2022/05/20 13:20:37;;;;;;;15.55;7.50;;;21.60;56.10;;;;;;5124641;28;20043;-37
2022/05/20 13:23:05;;;;;;;14.82;7.55;;;21.60;56.20;;;;;;5085675;28;20027;-36
2022/05/20 13:25:31;;;;;;;12.52;7.07;;;21.60;56.20;;;;;;5124867;28;20095;-36
2022/05/20 13:27:59;;;;;;;14.63;7.68;;;21.60;56.20;;;;;;5124867;28;20027;-36
2022/05/20 13:30:28;;;;;;;14.57;6.90;;;21.60;56.30;;;;;;5095000;28;20569;-36
2022/05/20 13:33:03;;;;;;;13.35;6.70;;;21.60;56.30;;;;;;5065669;28;20079;-36
2022/05/20 13:35:29;;;;;;;11.30;6.25;;;21.60;56.40;;;;;;5083800;28;20044;-36
2022/05/20 13:37:59;;;;;;;12.60;6.78;;;21.70;56.60;;;;;;5083806;28;20028;-36
2022/05/20 13:40:30;;;;;;;14.57;7.05;;;21.70;56.70;;;;;;5071605;28;20036;-36
2022/05/20 13:42:57;;;;;;;11.90;6.45;;;21.70;56.90;;;;;;5085366;28;20083;-36
2022/05/20 13:49:13;;;;;;;11.83;6.43;;;21.70;57.00;;;;;;5085781;28;20020;-36
2022/05/20 13:51:08;;;;;;;10.52;6.35;;;21.70;57.40;;;;;;5074500;28;20054;-36
2022/05/20 13:53:35;;;;;;;11.38;6.35;;;21.70;57.70;;;;;;5085292;28;20036;-37